createdAt,value
2023-01-20T00:01:20.874Z,99852.82
2023-01-20T00:03:33.440Z,99853.48
2023-01-20T00:05:52.956Z,99855.70
2023-01-20T00:08:05.839Z,99855.36
2023-01-20T00:10:18.538Z,99859.12
2023-01-20T00:12:31.972Z,99860.12
2023-01-20T00:14:44.564Z,99865.07
2023-01-20T00:16:57.438Z,99861.66
2023-01-20T00:19:13.236Z,99860.82
2023-01-20T00:21:25.874Z,99858.95
2023-01-20T00:23:39.970Z,99855.71
2023-01-20T00:25:52.534Z,99856.05
2023-01-20T00:28:05.502Z,99855.54
2023-01-20T00:30:18.135Z,99856.73
2023-01-20T00:32:30.855Z,99859.95
2023-01-20T00:34:43.471Z,99862.15
2023-01-20T00:36:56.078Z,99860.29
2023-01-20T00:39:08.735Z,99863.86
2023-01-20T00:41:21.414Z,99864.52
2023-01-20T00:43:34.465Z,99870.81
2023-01-20T00:45:47.071Z,99867.08
2023-01-20T00:47:59.617Z,99869.10
2023-01-20T00:50:12.225Z,99873.52
2023-01-20T00:52:24.761Z,99878.11
2023-01-20T00:54:37.287Z,99877.92
2023-01-20T00:56:49.802Z,99882.17
2023-01-20T00:59:02.681Z,99880.13
2023-01-20T01:01:15.452Z,99878.95
2023-01-20T01:03:28.945Z,99880.83
2023-01-20T01:05:41.546Z,99885.94
2023-01-20T01:07:54.168Z,99891.55
2023-01-20T01:10:07.076Z,99891.53
2023-01-20T01:12:19.689Z,99893.73
2023-01-20T01:14:32.511Z,99898.33
2023-01-20T01:16:45.079Z,99897.80
2023-01-20T01:18:57.925Z,99897.62
2023-01-20T01:21:13.115Z,99900.83
2023-01-20T01:23:25.709Z,99900.46
2023-01-20T01:25:38.347Z,99905.20
2023-01-20T01:27:50.884Z,99901.61
2023-01-20T01:30:04.730Z,99899.21
2023-01-20T01:32:17.294Z,99898.35
2023-01-20T01:34:30.507Z,99897.84
2023-01-20T01:36:43.103Z,99896.45
2023-01-20T01:38:58.947Z,99897.12
2023-01-20T01:41:13.747Z,99896.95
2023-01-20T01:43:29.462Z,99900.16
2023-01-20T01:45:42.107Z,99904.25
2023-01-20T01:48:03.399Z,99903.26
2023-01-20T01:50:21.388Z,99898.67
2023-01-20T01:52:34.892Z,99901.41
2023-01-20T01:54:49.159Z,99903.63
2023-01-20T01:57:02.033Z,99908.22
2023-01-20T01:59:16.132Z,99911.11
2023-01-20T02:01:29.605Z,99913.81
2023-01-20T02:03:52.376Z,99909.06
2023-01-20T02:06:05.830Z,99911.95
2023-01-20T02:08:19.667Z,99914.34
2023-01-20T02:10:32.324Z,99921.98
2023-01-20T02:12:49.559Z,99927.10
2023-01-20T02:15:04.127Z,99928.12
2023-01-20T02:17:26.863Z,99926.59
2023-01-20T02:20:16.482Z,99926.59
2023-01-20T02:22:41.232Z,99922.82
2023-01-20T02:25:22.889Z,99924.66
2023-01-20T02:28:12.723Z,99927.00
2023-01-20T02:31:05.950Z,99928.88
2023-01-20T02:33:44.750Z,99931.41
2023-01-20T02:36:08.983Z,99935.16
2023-01-20T02:38:34.977Z,99939.27
2023-01-20T02:41:08.323Z,99943.52
2023-01-20T02:43:36.248Z,99943.88
2023-01-20T02:45:59.264Z,99943.23
2023-01-20T02:48:20.032Z,99940.70
2023-01-20T02:50:46.169Z,99942.25
2023-01-20T02:53:01.939Z,99948.20
2023-01-20T02:55:29.146Z,99949.56
2023-01-20T02:57:50.522Z,99948.55
2023-01-20T03:00:12.810Z,99949.40
2023-01-20T03:02:27.935Z,99950.93
2023-01-20T03:04:49.989Z,99955.36
2023-01-20T03:07:04.664Z,99958.10
2023-01-20T03:09:23.838Z,99958.27
2023-01-20T03:11:41.374Z,99958.23
2023-01-20T03:14:04.363Z,99963.32
2023-01-20T03:16:23.463Z,99967.38
2023-01-20T03:18:37.800Z,99964.31
2023-01-20T03:20:50.430Z,99960.10
2023-01-20T03:23:02.971Z,99955.16
2023-01-20T03:25:18.410Z,99957.23
2023-01-20T03:27:31.419Z,99961.83
2023-01-20T03:29:46.125Z,99962.67
2023-01-20T03:32:01.278Z,99968.13
2023-01-20T03:34:22.253Z,99973.91
2023-01-20T03:36:34.871Z,99979.68
2023-01-20T03:38:47.969Z,99985.11
2023-01-20T03:41:14.708Z,99980.02
2023-01-20T03:43:58.285Z,99986.13
2023-01-20T03:46:29.201Z,99992.09
2023-01-20T03:48:53.838Z,99994.44
2023-01-20T03:51:13.616Z,99998.86
2023-01-20T03:53:45.480Z,100000.73
2023-01-20T03:56:06.434Z,100008.57
2023-01-20T03:58:24.601Z,100010.25
2023-01-20T04:00:43.350Z,100013.95
2023-01-20T04:03:00.724Z,100018.88
2023-01-20T04:05:14.421Z,100025.66
2023-01-20T04:07:27.858Z,100028.36
2023-01-20T04:09:45.539Z,100028.52
2023-01-20T04:11:59.149Z,100029.36
2023-01-20T04:14:11.753Z,100028.70
2023-01-20T04:16:25.777Z,100020.71
2023-01-20T04:18:42.237Z,100020.88
2023-01-20T04:21:02.518Z,100022.04
2023-01-20T04:23:29.548Z,100027.45
2023-01-20T04:25:42.612Z,100034.17
2023-01-20T04:27:55.302Z,100038.86
2023-01-20T04:30:09.280Z,100034.21
2023-01-20T04:32:21.885Z,100038.58
2023-01-20T04:34:34.493Z,100044.52
2023-01-20T04:36:47.088Z,100045.56
2023-01-20T04:38:59.776Z,100046.43
2023-01-20T04:41:12.753Z,100051.52
2023-01-20T04:43:25.328Z,100055.05
2023-01-20T04:45:38.221Z,100059.11
2023-01-20T04:47:50.882Z,100058.27
2023-01-20T04:50:03.591Z,100064.85
2023-01-20T04:52:17.006Z,100066.20
2023-01-20T04:54:29.679Z,100065.69
2023-01-20T04:56:43.304Z,100069.23
2023-01-20T04:58:55.998Z,100067.13
2023-01-20T05:01:09.402Z,100071.66
2023-01-20T05:03:22.061Z,100076.90
2023-01-20T05:05:34.818Z,100084.90
2023-01-20T05:07:47.314Z,100086.99
2023-01-20T05:09:59.824Z,100089.25
2023-01-20T05:12:12.340Z,100091.98
2023-01-20T05:14:24.900Z,100090.41
2023-01-20T05:16:37.915Z,100093.09
2023-01-20T05:18:50.870Z,100097.44
2023-01-20T05:21:05.260Z,100099.48
2023-01-20T05:23:17.845Z,100101.17
2023-01-20T05:25:30.429Z,100104.44
2023-01-20T05:27:44.955Z,100103.80
2023-01-20T05:29:57.519Z,100105.92
2023-01-20T05:32:10.118Z,100107.55
2023-01-20T05:34:22.869Z,100110.83
2023-01-20T05:36:35.593Z,100114.46
2023-01-20T05:38:48.288Z,100115.84
2023-01-20T05:41:06.706Z,100119.06
2023-01-20T05:43:19.242Z,100121.95
2023-01-20T05:45:32.427Z,100128.92
2023-01-20T05:47:44.999Z,100131.17
2023-01-20T05:49:57.637Z,100127.67
2023-01-20T05:52:10.222Z,100127.18
2023-01-20T05:54:22.751Z,100123.65
2023-01-20T05:56:35.330Z,100124.68
2023-01-20T05:58:47.864Z,100123.48
2023-01-20T06:01:12.457Z,100124.68
2023-01-20T06:03:25.090Z,100124.81
2023-01-20T06:05:37.702Z,100129.00
2023-01-20T06:07:50.200Z,100129.83
2023-01-20T06:10:03.345Z,100129.48
2023-01-20T06:12:15.981Z,100131.34
2023-01-20T06:14:28.524Z,100133.20
2023-01-20T06:16:41.156Z,100136.73
2023-01-20T06:18:53.932Z,100137.86
2023-01-20T06:21:06.569Z,100139.50
2023-01-20T06:23:19.224Z,100136.94
2023-01-20T06:25:31.761Z,100134.66
2023-01-20T06:27:44.320Z,100128.71
2023-01-20T06:29:56.929Z,100125.45
2023-01-20T06:32:09.523Z,100121.44
2023-01-20T06:34:22.154Z,100116.66
2023-01-20T06:36:34.833Z,100115.48
2023-01-20T06:38:50.542Z,100117.34
2023-01-20T06:41:05.866Z,100120.20
2023-01-20T06:43:18.533Z,100123.73
2023-01-20T06:45:31.167Z,100120.29
2023-01-20T06:47:43.749Z,100126.08
2023-01-20T06:49:56.312Z,100132.20
2023-01-20T06:52:09.732Z,100132.44
2023-01-20T06:54:22.412Z,100136.73
2023-01-20T06:56:35.575Z,100141.23
2023-01-20T06:58:48.551Z,100142.22
2023-01-20T07:01:20.392Z,100145.77
2023-01-20T07:03:33.222Z,100147.27
2023-01-20T07:05:58.775Z,100150.65
2023-01-20T07:08:11.660Z,100152.89
2023-01-20T07:10:24.199Z,100159.13
2023-01-20T07:12:36.916Z,100165.73
2023-01-20T07:14:49.552Z,100175.41
2023-01-20T07:17:02.127Z,100179.34
2023-01-20T07:19:14.728Z,100180.35
2023-01-20T07:21:27.574Z,100183.41
2023-01-20T07:23:40.196Z,100189.40
2023-01-20T07:26:07.230Z,100199.13
2023-01-20T07:28:19.888Z,100211.84
2023-01-20T07:30:32.538Z,100214.60
2023-01-20T07:32:45.285Z,100218.40
2023-01-20T07:34:58.016Z,100212.91
2023-01-20T07:37:10.558Z,100221.25
2023-01-20T07:39:23.110Z,100228.42
2023-01-20T07:41:35.723Z,100235.47
2023-01-20T07:43:50.721Z,100236.30
2023-01-20T07:46:04.983Z,100233.77
2023-01-20T07:48:17.637Z,100232.97
2023-01-20T07:50:30.171Z,100234.81
2023-01-20T07:52:43.215Z,100247.61
2023-01-20T07:54:55.792Z,100248.45
2023-01-20T07:57:09.260Z,100252.67
2023-01-20T07:59:21.858Z,100257.44
2023-01-20T08:01:34.551Z,100259.95
2023-01-20T08:03:47.979Z,100260.72
2023-01-20T08:06:09.840Z,100264.86
2023-01-20T08:08:23.122Z,100266.42
2023-01-20T08:10:35.722Z,100263.75
2023-01-20T08:12:48.339Z,100263.65
2023-01-20T08:15:00.873Z,100258.60
2023-01-20T08:17:13.773Z,100247.90
2023-01-20T08:19:29.911Z,100249.65
2023-01-20T08:21:42.608Z,100247.67
2023-01-20T08:23:58.731Z,100252.14
2023-01-20T08:26:11.380Z,100256.80
2023-01-20T08:28:24.072Z,100261.95
2023-01-20T08:30:36.695Z,100268.64
2023-01-20T08:32:49.538Z,100268.15
2023-01-20T08:35:02.158Z,100273.95
2023-01-20T08:37:14.736Z,100281.83
2023-01-20T08:39:27.346Z,100286.09
2023-01-20T08:41:42.985Z,100288.34
2023-01-20T08:43:57.627Z,100292.26
2023-01-20T08:46:13.231Z,100295.51
2023-01-20T08:48:25.972Z,100297.38
2023-01-20T08:50:38.515Z,100295.48
2023-01-20T08:52:51.122Z,100290.52
2023-01-20T08:55:05.330Z,100290.69
2023-01-20T08:57:17.827Z,100293.41
2023-01-20T08:59:30.391Z,100294.24
2023-01-20T09:01:43.789Z,100295.24
2023-01-20T09:04:06.431Z,100287.67
2023-01-20T09:06:21.699Z,100284.86
2023-01-20T09:08:34.959Z,100280.17
2023-01-20T09:10:47.611Z,100281.45
2023-01-20T09:13:00.199Z,100288.17
2023-01-20T09:15:13.213Z,100295.11
2023-01-20T09:17:25.867Z,100295.84
2023-01-20T09:19:38.425Z,100298.29
2023-01-20T09:21:50.957Z,100300.52
2023-01-20T09:24:03.703Z,100305.08
2023-01-20T09:26:33.478Z,100309.50
2023-01-20T09:28:47.133Z,100310.55
2023-01-20T09:31:01.664Z,100315.22
2023-01-20T09:33:14.396Z,100320.20
2023-01-20T09:35:27.031Z,100318.31
2023-01-20T09:37:58.112Z,100321.37
2023-01-20T09:40:39.234Z,100317.89
2023-01-20T09:43:19.049Z,100319.17
2023-01-20T09:45:41.247Z,100317.03
2023-01-20T09:48:46.416Z,100313.67
2023-01-20T09:51:26.579Z,100309.36
2023-01-20T09:54:00.226Z,100314.61
2023-01-20T09:56:17.294Z,100319.45
2023-01-20T09:58:46.558Z,100317.86
2023-01-20T10:01:31.367Z,100312.77
2023-01-20T10:03:56.935Z,100307.09
2023-01-20T10:06:34.517Z,100305.39
2023-01-20T10:09:05.982Z,100307.89
2023-01-20T10:11:22.114Z,100301.33
2023-01-20T10:13:47.247Z,100299.53
2023-01-20T10:16:06.648Z,100300.80
2023-01-20T10:18:27.111Z,100300.41
2023-01-20T10:21:01.514Z,100300.13
2023-01-20T10:23:21.833Z,100297.04
2023-01-20T10:25:41.379Z,100297.30
2023-01-20T10:28:16.540Z,100297.38
2023-01-20T10:30:35.713Z,100292.00
2023-01-20T10:33:03.375Z,100290.39
2023-01-20T10:35:24.926Z,100290.91
2023-01-20T10:37:37.989Z,100291.36
2023-01-20T10:40:14.118Z,100294.31
2023-01-20T10:42:28.489Z,100292.16
2023-01-20T10:44:41.858Z,100292.00
2023-01-20T10:47:25.039Z,100296.76
2023-01-20T10:50:14.785Z,100304.77
2023-01-20T10:52:40.151Z,100313.61
2023-01-20T10:55:24.182Z,100314.12
2023-01-20T10:57:38.257Z,100308.36
2023-01-20T10:59:55.668Z,100308.04
2023-01-20T11:02:26.147Z,100309.59
2023-01-20T11:04:39.090Z,100315.64
2023-01-20T11:06:56.671Z,100311.77
2023-01-20T11:09:42.709Z,100313.11
2023-01-20T11:11:56.585Z,100315.56
2023-01-20T11:14:09.309Z,100312.84
2023-01-20T11:16:28.937Z,100313.56
2023-01-20T11:18:41.812Z,100317.14
2023-01-20T11:20:58.385Z,100317.94
2023-01-20T11:23:23.562Z,100325.91
2023-01-20T11:25:36.209Z,100325.87
2023-01-20T11:27:48.971Z,100331.16
2023-01-20T11:30:07.092Z,100332.41
2023-01-20T11:32:41.513Z,100328.61
2023-01-20T11:34:55.773Z,100331.02
2023-01-20T11:37:08.323Z,100330.83
2023-01-20T11:39:50.229Z,100329.16
2023-01-20T11:42:28.316Z,100332.72
2023-01-20T11:44:50.591Z,100333.09
2023-01-20T11:47:33.890Z,100339.79
2023-01-20T11:49:46.418Z,100341.10
2023-01-20T11:51:59.326Z,100340.70
2023-01-20T11:54:26.348Z,100338.08
2023-01-20T11:56:43.188Z,100341.08
2023-01-20T11:58:59.027Z,100344.66
2023-01-20T12:01:22.742Z,100347.39
2023-01-20T12:03:48.294Z,100346.16
2023-01-20T12:07:41.043Z,100348.35
2023-01-20T12:09:59.385Z,100354.52
2023-01-20T12:12:28.520Z,100351.60
2023-01-20T12:15:16.662Z,100355.37
2023-01-20T12:17:57.470Z,100355.59
2023-01-20T12:20:16.727Z,100357.29
2023-01-20T12:22:44.147Z,100357.59
2023-01-20T12:25:10.629Z,100357.60
2023-01-20T12:27:28.188Z,100358.88
2023-01-20T12:29:45.679Z,100360.27
2023-01-20T12:31:58.320Z,100365.40
2023-01-20T12:34:13.671Z,100365.76
2023-01-20T12:37:03.293Z,100367.64
2023-01-20T12:39:44.134Z,100368.86
2023-01-20T12:42:05.911Z,100368.59
2023-01-20T12:44:26.426Z,100364.79
2023-01-20T12:46:49.469Z,100355.59
2023-01-20T12:49:35.961Z,100355.95
2023-01-20T12:52:25.002Z,100355.87
2023-01-20T12:55:00.124Z,100356.48
2023-01-20T12:57:50.693Z,100357.17
2023-01-20T13:00:03.846Z,100357.41
2023-01-20T13:02:16.563Z,100360.11
2023-01-20T13:04:47.910Z,100361.09
2023-01-20T13:07:25.072Z,100364.03
2023-01-20T13:09:48.018Z,100365.23
2023-01-20T13:12:33.271Z,100364.30
2023-01-20T13:14:53.052Z,100360.83
2023-01-20T13:17:42.047Z,100364.44
2023-01-20T13:19:59.184Z,100367.98
2023-01-20T13:22:20.349Z,100372.59
2023-01-20T13:24:33.767Z,100375.75
2023-01-20T13:26:49.151Z,100379.13
2023-01-20T13:29:02.343Z,100380.63
2023-01-20T13:31:44.863Z,100383.58
2023-01-20T13:34:22.594Z,100386.26
2023-01-20T13:36:35.191Z,100388.36
2023-01-20T13:38:50.101Z,100394.36
2023-01-20T13:41:05.681Z,100395.23
2023-01-20T13:43:24.944Z,100402.83
2023-01-20T13:45:37.596Z,100403.90
2023-01-20T13:48:22.188Z,100403.08
2023-01-20T13:50:37.438Z,100407.13
2023-01-20T13:52:49.915Z,100407.65
2023-01-20T13:55:02.444Z,100411.02
2023-01-20T13:57:24.759Z,100410.81
2023-01-20T13:59:37.346Z,100413.77
2023-01-20T14:01:49.923Z,100414.63
2023-01-20T14:04:06.702Z,100418.91
2023-01-20T14:06:20.879Z,100421.50
2023-01-20T14:08:45.634Z,100423.21
2023-01-20T14:11:29.318Z,100424.40
2023-01-20T14:13:50.890Z,100424.75
2023-01-20T14:16:04.310Z,100424.86
2023-01-20T14:18:20.050Z,100427.88
2023-01-20T14:20:32.740Z,100425.18
2023-01-20T14:22:45.265Z,100431.38
2023-01-20T14:25:00.690Z,100433.61
2023-01-20T14:27:22.569Z,100440.45
2023-01-20T14:29:35.209Z,100443.79
2023-01-20T14:31:51.038Z,100447.89
2023-01-20T14:34:32.951Z,100449.83
2023-01-20T14:36:46.915Z,100452.21
2023-01-20T14:39:04.054Z,100457.20
2023-01-20T14:41:28.548Z,100458.91
2023-01-20T14:43:45.109Z,100465.95
2023-01-20T14:45:57.851Z,100467.83
2023-01-20T14:48:19.046Z,100466.34
2023-01-20T14:50:42.536Z,100466.73
2023-01-20T14:52:55.175Z,100467.95
2023-01-20T14:55:27.210Z,100469.02
2023-01-20T14:57:45.991Z,100474.77
2023-01-20T15:00:04.610Z,100476.04
2023-01-20T15:02:37.709Z,100476.09
2023-01-20T15:04:50.413Z,100475.63
2023-01-20T15:07:03.234Z,100480.09
2023-01-20T15:09:33.998Z,100481.66
2023-01-20T15:11:46.588Z,100484.44
2023-01-20T15:14:02.165Z,100484.27
2023-01-20T15:16:24.180Z,100486.33
2023-01-20T15:18:36.759Z,100491.54
2023-01-20T15:21:03.857Z,100496.02
2023-01-20T15:23:34.764Z,100501.73
2023-01-20T15:25:49.667Z,100503.98
2023-01-20T15:28:02.281Z,100502.95
2023-01-20T15:30:23.067Z,100502.28
2023-01-20T15:32:35.650Z,100506.75
2023-01-20T15:34:48.232Z,100502.83
2023-01-20T15:37:00.910Z,100504.73
2023-01-20T15:39:14.588Z,100503.39
2023-01-20T15:41:27.154Z,100504.10
2023-01-20T15:43:41.418Z,100509.61
2023-01-20T15:45:53.975Z,100511.48
2023-01-20T15:48:16.158Z,100514.08
2023-01-20T15:50:31.115Z,100521.46
2023-01-20T15:52:43.726Z,100527.29
2023-01-20T15:54:56.311Z,100535.34
2023-01-20T15:57:14.247Z,100538.23
2023-01-20T15:59:30.068Z,100543.55
2023-01-20T16:01:47.123Z,100543.39
2023-01-20T16:03:59.903Z,100541.49
2023-01-20T16:06:17.375Z,100545.78
2023-01-20T16:08:36.868Z,100549.69
2023-01-20T16:10:49.604Z,100547.47
2023-01-20T16:13:02.179Z,100547.64
2023-01-20T16:15:17.657Z,100547.65
2023-01-20T16:17:30.911Z,100544.92
2023-01-20T16:19:43.751Z,100548.51
2023-01-20T16:21:56.375Z,100548.67
2023-01-20T16:24:08.987Z,100547.50
2023-01-20T16:26:27.366Z,100549.19
2023-01-20T16:28:39.939Z,100548.34
2023-01-20T16:30:54.092Z,100551.42
2023-01-20T16:33:15.923Z,100549.36
2023-01-20T16:35:29.048Z,100553.14
2023-01-20T16:37:42.167Z,100555.70
2023-01-20T16:39:54.802Z,100561.34
2023-01-20T16:42:11.302Z,100562.52
2023-01-20T16:44:23.974Z,100571.24
2023-01-20T16:46:36.502Z,100576.70
2023-01-20T16:48:49.767Z,100578.95
2023-01-20T16:51:05.336Z,100578.60
2023-01-20T16:53:19.602Z,100581.66
2023-01-20T16:55:32.236Z,100588.34
2023-01-20T16:57:44.803Z,100592.61
2023-01-20T16:59:57.450Z,100595.85
2023-01-20T17:02:11.244Z,100600.47
2023-01-20T17:04:23.822Z,100606.45
2023-01-20T17:06:36.481Z,100609.19
2023-01-20T17:08:52.205Z,100613.80
2023-01-20T17:11:05.013Z,100611.73
2023-01-20T17:13:17.560Z,100616.70
2023-01-20T17:15:30.263Z,100622.17
2023-01-20T17:17:43.317Z,100626.60
2023-01-20T17:19:55.892Z,100626.80
2023-01-20T17:22:08.573Z,100632.59
2023-01-20T17:24:21.186Z,100638.75
2023-01-20T17:26:34.428Z,100639.95
2023-01-20T17:28:47.656Z,100643.04
2023-01-20T17:31:04.620Z,100643.72
2023-01-20T17:33:17.315Z,100645.77
2023-01-20T17:35:29.894Z,100650.20
2023-01-20T17:37:42.501Z,100653.45
2023-01-20T17:39:55.115Z,100651.40
2023-01-20T17:42:07.975Z,100652.93
2023-01-20T17:44:20.622Z,100656.71
2023-01-20T17:46:33.558Z,100656.86
2023-01-20T17:48:46.341Z,100660.11
2023-01-20T17:50:59.362Z,100656.02
2023-01-20T17:53:12.864Z,100656.70
2023-01-20T17:55:25.524Z,100661.48
2023-01-20T17:57:38.093Z,100663.86
2023-01-20T17:59:50.639Z,100667.80
2023-01-20T18:02:03.472Z,100672.09
2023-01-20T18:04:16.065Z,100674.30
2023-01-20T18:06:28.945Z,100676.33
2023-01-20T18:08:42.611Z,100678.56
2023-01-20T18:10:55.187Z,100683.02
2023-01-20T18:13:07.766Z,100682.67
2023-01-20T18:15:21.310Z,100686.27
2023-01-20T18:17:34.394Z,100687.80
2023-01-20T18:19:47.779Z,100691.73
2023-01-20T18:22:01.909Z,100689.67
2023-01-20T18:24:14.524Z,100686.09
2023-01-20T18:26:29.888Z,100685.91
2023-01-20T18:28:42.953Z,100687.29
2023-01-20T18:31:00.898Z,100688.48
2023-01-20T18:33:13.592Z,100690.89
2023-01-20T18:35:26.191Z,100693.08
2023-01-20T18:37:38.775Z,100691.37
2023-01-20T18:39:51.390Z,100688.80
2023-01-20T18:42:04.175Z,100688.63
2023-01-20T18:44:18.122Z,100685.71
2023-01-20T18:46:31.049Z,100681.61
2023-01-20T18:48:46.112Z,100681.96
2023-01-20T18:51:01.832Z,100682.64
2023-01-20T18:53:14.361Z,100687.42
2023-01-20T18:55:27.130Z,100689.13
2023-01-20T18:57:40.012Z,100689.98
2023-01-20T18:59:52.604Z,100686.73
2023-01-20T19:02:05.322Z,100685.86
2023-01-20T19:04:17.941Z,100691.66
2023-01-20T19:06:34.889Z,100697.63
2023-01-20T19:08:51.305Z,100695.06
2023-01-20T19:11:06.857Z,100699.15
2023-01-20T19:13:19.385Z,100702.91
2023-01-20T19:15:33.653Z,100704.27
2023-01-20T19:17:46.356Z,100703.25
2023-01-20T19:19:59.433Z,100706.84
2023-01-20T19:22:12.211Z,100706.14
2023-01-20T19:24:28.836Z,100711.45
2023-01-20T19:26:41.433Z,100712.81
2023-01-20T19:29:05.929Z,100716.56
2023-01-20T19:31:19.371Z,100711.92
2023-01-20T19:33:33.362Z,100709.37
2023-01-20T19:35:45.906Z,100710.89
2023-01-20T19:37:58.558Z,100710.56
2023-01-20T19:40:11.381Z,100712.61
2023-01-20T19:42:25.695Z,100710.21
2023-01-20T19:44:38.587Z,100712.11
2023-01-20T19:46:51.430Z,100710.55
2023-01-20T19:49:04.553Z,100710.39
2023-01-20T19:51:19.462Z,100717.05
2023-01-20T19:53:32.548Z,100720.77
2023-01-20T19:55:45.406Z,100724.02
2023-01-20T19:57:58.109Z,100730.30
2023-01-20T20:00:11.682Z,100732.86
2023-01-20T20:02:24.615Z,100736.44
2023-01-20T20:04:37.530Z,100737.11
2023-01-20T20:06:50.396Z,100735.71
2023-01-20T20:09:10.023Z,100736.94
2023-01-20T20:11:22.625Z,100734.02
2023-01-20T20:13:35.402Z,100736.40
2023-01-20T20:15:48.770Z,100736.40
2023-01-20T20:18:01.408Z,100735.55
2023-01-20T20:20:14.659Z,100731.44
2023-01-20T20:22:27.372Z,100734.14
2023-01-20T20:24:40.096Z,100744.55
2023-01-20T20:26:52.913Z,100737.56
2023-01-20T20:29:08.060Z,100735.67
2023-01-20T20:31:22.415Z,100733.60
2023-01-20T20:33:35.688Z,100735.77
2023-01-20T20:35:48.334Z,100731.48
2023-01-20T20:38:01.095Z,100735.42
2023-01-20T20:40:13.968Z,100734.23
2023-01-20T20:42:27.191Z,100730.13
2023-01-20T20:44:40.923Z,100726.87
2023-01-20T20:46:53.731Z,100724.14
2023-01-20T20:49:06.386Z,100719.17
2023-01-20T20:51:20.603Z,100718.31
2023-01-20T20:53:33.510Z,100716.27
2023-01-20T20:55:46.394Z,100712.65
2023-01-20T20:57:59.646Z,100708.88
2023-01-20T21:00:15.458Z,100702.58
2023-01-20T21:02:28.256Z,100697.96
2023-01-20T21:04:41.087Z,100698.13
2023-01-20T21:06:53.646Z,100700.00
2023-01-20T21:09:06.499Z,100699.80
2023-01-20T21:11:20.558Z,100702.55
2023-01-20T21:13:34.147Z,100711.89
2023-01-20T21:16:01.530Z,100716.98
2023-01-20T21:18:14.396Z,100716.61
2023-01-20T21:20:27.075Z,100717.27
2023-01-20T21:22:39.639Z,100713.17
2023-01-20T21:24:52.171Z,100715.55
2023-01-20T21:27:04.834Z,100717.76
2023-01-20T21:29:17.467Z,100719.45
2023-01-20T21:31:31.343Z,100722.69
2023-01-20T21:33:46.852Z,100721.32
2023-01-20T21:36:01.729Z,100726.25
2023-01-20T21:38:14.775Z,100731.84
2023-01-20T21:40:27.345Z,100733.71
2023-01-20T21:42:39.926Z,100740.66
2023-01-20T21:44:52.474Z,100738.62
2023-01-20T21:47:10.509Z,100735.36
2023-01-20T21:49:41.747Z,100742.48
2023-01-20T21:52:13.744Z,100752.16
2023-01-20T21:54:31.598Z,100752.58
2023-01-20T21:56:44.201Z,100756.65
2023-01-20T21:58:56.777Z,100751.70
2023-01-20T22:01:09.911Z,100754.14
2023-01-20T22:03:22.539Z,100746.46
2023-01-20T22:05:38.429Z,100748.48
2023-01-20T22:07:51.164Z,100746.57
2023-01-20T22:10:04.710Z,100747.36
2023-01-20T22:12:17.449Z,100743.58
2023-01-20T22:14:32.614Z,100743.56
2023-01-20T22:16:45.328Z,100741.96
2023-01-20T22:18:58.090Z,100740.41
2023-01-20T22:21:11.204Z,100738.38
2023-01-20T22:23:23.753Z,100735.30
2023-01-20T22:25:36.335Z,100735.30
2023-01-20T22:27:48.854Z,100731.73
2023-01-20T22:30:01.450Z,100727.46
2023-01-20T22:32:14.243Z,100717.92
2023-01-20T22:34:26.766Z,100708.55
2023-01-20T22:36:39.640Z,100701.39
2023-01-20T22:38:53.034Z,100700.02
2023-01-20T22:41:08.029Z,100703.42
2023-01-20T22:43:20.794Z,100710.42
2023-01-20T22:45:33.382Z,100715.58
2023-01-20T22:47:46.144Z,100719.65
2023-01-20T22:49:58.655Z,100723.73
2023-01-20T22:52:11.194Z,100724.10
2023-01-20T22:54:23.939Z,100717.09
2023-01-20T22:56:36.618Z,100717.58
2023-01-20T22:58:49.900Z,100716.90
2023-01-20T23:01:03.173Z,100717.90
2023-01-20T23:03:15.807Z,100723.71
2023-01-20T23:05:28.370Z,100721.36
2023-01-20T23:07:40.981Z,100719.15
2023-01-20T23:09:53.554Z,100726.29
2023-01-20T23:12:06.347Z,100730.92
2023-01-20T23:14:38.901Z,100730.92
2023-01-20T23:16:51.628Z,100727.48
2023-01-20T23:19:04.498Z,100725.45
2023-01-20T23:21:17.568Z,100723.42
2023-01-20T23:23:30.064Z,100716.77
2023-01-20T23:25:42.968Z,100719.16
2023-01-20T23:27:55.800Z,100726.11
2023-01-20T23:30:10.220Z,100728.17
2023-01-20T23:32:22.786Z,100725.84
2023-01-20T23:34:35.371Z,100736.39
2023-01-20T23:36:47.947Z,100742.02
2023-01-20T23:39:00.579Z,100734.05
2023-01-20T23:41:14.886Z,100724.34
2023-01-20T23:43:27.577Z,100723.00
2023-01-20T23:45:40.237Z,100727.13
2023-01-20T23:47:52.794Z,100730.73
2023-01-20T23:50:06.125Z,100730.91
2023-01-20T23:52:19.219Z,100728.70
2023-01-20T23:54:31.793Z,100728.22
2023-01-20T23:56:44.375Z,100729.74
2023-01-20T23:58:56.988Z,100728.36
